Albuquerque, NM (87112)

9:09 AM MDT on September 01, 2015 (GMT -0600)
Hoffmantown (ABQ NE Hgts) | | Change Station
CLOSE
Current Station
Personal Weather Station
Location: Albuquerque, NM
Elevation: 5443 ft
Nearby Weather Stations

Elev 5443 ft 35.11 °N, 106.54 °W | Updated 11 seconds ago

Partly Cloudy
Partly Cloudy
81.0 °F
Feels Like 80 °F
N
1.1
Wind Variable Wind from WSW
Gusts 1.3 mph

Today
High -- | Low -- °F
--% Chance of Precip.
Yesterday
High -- | Low -- °F
Precip. -- in
6:38 AM 7:33 PM
Waning Gibbous, 88% visible
Pressure 29.96 in
Visibility 10.0 miles
Clouds Few 13000 ft
Few 25000 ft
Heat Index 80 °F
Dew Point 52 °F
Humidity 37%
Rainfall 0.00 in
Snow Depth Not available.
UV 2 out of 12
Pollen 7.60 out of 12
Air Quality Not available.
Flu Activity Not available.
METAR KABQ 011452Z 18004KT 10SM FEW130 FEW250 23/09 A3021 RMK AO2 SLP143 T02280089 51010
Pressure 29.96 in
Visibility 10.0 miles
Clouds Few 13000 ft
Few 25000 ft
Heat Index 80 °F
Dew Point 52 °F
Humidity 37%
Rainfall 0.00 in
Snow Depth Not available.
UV 2 out of 12
Pollen 7.60 out of 12
Air Quality Not available.
Flu Activity Not available.
METAR KABQ 011452Z 18004KT 10SM FEW130 FEW250 23/09 A3021 RMK AO2 SLP143 T02280089 51010

10-Day Weather Forecast

×

Almanac

Astronomy

Sep. 01, 2015 Rise Set
Actual Time
Civil Twilight
Nautical Twilight
Astronomical Twilight
Moon
Length of Visible Light
Length of Day
Tomorrow will be .
, % of the Moon is Illuminated

Today's Extremes

State Highs State Lows

Community

WunderPhotos

Upload Photos

1,851,520 photos uploaded!

WunderBlogs® & News

Nearby

Air Quality

  Air Quality AQ Index Pollutant
Not available.

Snow Depth

Station Depth Elevation

Earthquake Activity

City Distance Mag. Time & Date
Minimum magnitude displayed is 2.5.

Coastal Water Temperatures

Place Temperature

Stations

Nearby Weather Stations

Station Location Temp. Windchill Dew Point Humidity Wind Precip. Elev Updated Type